createdAt,value
2022-08-02T00:00:16.879Z,101752.25
2022-08-02T00:10:38.459Z,101763.44
2022-08-02T00:20:59.886Z,101760.63
2022-08-02T00:31:21.567Z,101753.81
2022-08-02T00:41:49.013Z,101745.34
2022-08-02T00:52:10.691Z,101742.66
2022-08-02T01:02:32.750Z,101751.53
2022-08-02T01:12:54.358Z,101750.25
2022-08-02T01:23:34.361Z,101755.88
2022-08-02T01:34:34.594Z,101742.53
2022-08-02T01:44:57.599Z,101742.97
2022-08-02T01:55:23.305Z,101754.16
2022-08-02T02:05:58.692Z,101731.75
2022-08-02T02:16:22.766Z,101734.88
2022-08-02T02:26:51.953Z,101731.66
2022-08-02T02:37:27.509Z,101710.75
2022-08-02T02:47:50.586Z,101704.88
2022-08-02T02:58:13.603Z,101683.72
2022-08-02T03:08:35.250Z,101675.31
2022-08-02T03:19:01.656Z,101678.47
2022-08-02T03:29:23.275Z,101678.47
2022-08-02T03:39:49.718Z,101666.91
2022-08-02T03:50:15.115Z,101681.66
2022-08-02T04:00:36.797Z,101665.59
2022-08-02T04:11:17.089Z,101654.56
2022-08-02T04:21:49.028Z,101642.78
2022-08-02T04:32:15.255Z,101647.03
2022-08-02T04:42:37.472Z,101663.16
2022-08-02T04:52:59.001Z,101661.78
2022-08-02T05:03:20.532Z,101670.03
2022-08-02T05:13:58.469Z,101662.19
2022-08-02T05:24:20.981Z,101665.72
2022-08-02T05:34:42.465Z,101671.56
2022-08-02T05:45:07.220Z,101687.22
2022-08-02T05:55:34.485Z,101676.44
2022-08-02T06:06:00.444Z,101667.59
2022-08-02T06:16:31.612Z,101643.38
2022-08-02T06:26:57.353Z,101654.84
2022-08-02T06:37:31.117Z,101628.41
2022-08-02T06:47:54.162Z,101640.31
2022-08-02T06:58:15.761Z,101638.91
2022-08-02T07:08:38.800Z,101632.81
2022-08-02T07:19:00.340Z,101601.97
2022-08-02T07:29:21.873Z,101602.03
2022-08-02T07:39:44.458Z,101600.63
2022-08-02T07:50:08.673Z,101591.78
2022-08-02T08:00:30.638Z,101590.09
2022-08-02T08:10:52.236Z,101584.66
2022-08-02T08:21:13.875Z,101581.63
2022-08-02T08:31:35.508Z,101583.31
2022-08-02T08:41:57.097Z,101573.41
2022-08-02T08:52:20.236Z,101554.84
2022-08-02T09:02:42.862Z,101560.03
2022-08-02T09:13:37.592Z,101545.09
2022-08-02T09:23:52.301Z,101545.63
2022-08-02T09:34:13.892Z,101535.56
2022-08-02T09:45:00.291Z,101552.00
2022-08-02T09:55:22.008Z,101546.44
2022-08-02T10:05:55.885Z,101551.22
2022-08-02T10:16:24.964Z,101536.97
2022-08-02T10:26:47.897Z,101524.34
2022-08-02T10:37:11.462Z,101507.44
2022-08-02T10:47:36.582Z,101515.63
2022-08-02T10:58:19.311Z,101487.63
2022-08-02T11:08:41.203Z,101481.63
2022-08-02T11:19:06.850Z,101484.75
2022-08-02T11:29:45.649Z,101468.91
2022-08-02T11:40:19.126Z,101460.00
2022-08-02T11:50:41.488Z,101445.72
2022-08-02T12:01:04.278Z,101436.69
2022-08-02T12:11:25.837Z,101431.25
2022-08-02T12:22:08.986Z,101432.91
2022-08-02T12:32:30.828Z,101407.66
2022-08-02T12:42:57.080Z,101407.09
2022-08-02T12:53:18.707Z,101392.81
2022-08-02T13:04:07.609Z,101389.00
2022-08-02T13:14:21.824Z,101391.88
2022-08-02T13:24:56.645Z,101382.22
2022-08-02T13:35:18.652Z,101365.59
2022-08-02T13:45:40.285Z,101360.47
2022-08-02T13:56:03.027Z,101341.41
2022-08-02T14:06:24.581Z,101341.63
2022-08-02T14:16:46.257Z,101335.53
2022-08-02T14:27:07.820Z,101325.25
2022-08-02T14:37:29.349Z,101317.34
2022-08-02T14:47:50.950Z,101307.56
2022-08-02T14:58:14.404Z,101296.16
2022-08-02T15:08:35.959Z,101289.22
2022-08-02T15:18:57.517Z,101287.31
2022-08-02T15:29:19.343Z,101279.50
2022-08-02T15:39:40.885Z,101289.19
2022-08-02T15:50:02.695Z,101280.56
2022-08-02T16:00:24.312Z,101276.69
2022-08-02T16:10:45.937Z,101263.75
2022-08-02T16:21:07.520Z,101273.03
2022-08-02T16:31:29.275Z,101265.56
2022-08-02T16:41:52.959Z,101273.00
2022-08-02T16:52:14.644Z,101272.25
2022-08-02T17:02:37.780Z,101277.81
2022-08-02T17:13:11.229Z,101276.00
2022-08-02T17:24:04.476Z,101271.72
2022-08-02T17:34:17.720Z,101268.94
2022-08-02T17:44:41.433Z,101281.22
2022-08-02T17:55:10.659Z,101278.28
2022-08-02T18:05:40.207Z,101282.03
2022-08-02T18:16:20.835Z,101287.84
2022-08-02T18:26:45.239Z,101298.44
2022-08-02T18:37:08.513Z,101295.03
2022-08-02T18:47:32.882Z,101289.03
2022-08-02T18:58:17.279Z,101292.50
2022-08-02T19:08:36.329Z,101294.25
2022-08-02T19:18:59.843Z,101293.59
2022-08-02T19:29:43.508Z,101291.19
2022-08-02T19:40:03.658Z,101294.41
2022-08-02T19:50:25.769Z,101303.97
2022-08-02T20:00:47.519Z,101300.56
2022-08-02T20:11:14.959Z,101296.97
2022-08-02T20:21:38.227Z,101302.59
2022-08-02T20:32:05.878Z,101295.84
2022-08-02T20:42:29.476Z,101292.50
2022-08-02T20:52:51.028Z,101302.19
2022-08-02T21:03:15.201Z,101291.94
2022-08-02T21:13:47.173Z,101291.53
2022-08-02T21:24:18.247Z,101293.06
2022-08-02T21:34:46.130Z,101291.78
2022-08-02T21:45:17.288Z,101293.50
2022-08-02T21:56:00.558Z,101285.34
2022-08-02T22:06:20.858Z,101271.53
2022-08-02T22:16:45.475Z,101279.03
2022-08-02T22:27:11.462Z,101273.50
2022-08-02T22:38:17.198Z,101266.19
2022-08-02T22:48:17.311Z,101283.13
2022-08-02T22:59:10.363Z,101287.16
2022-08-02T23:09:20.655Z,101289.97
2022-08-02T23:19:52.914Z,101281.63
2022-08-02T23:30:14.518Z,101279.09
2022-08-02T23:40:40.055Z,101273.59
2022-08-02T23:51:02.767Z,101281.34
